Terminal Aerodrome Forecast
Issued by NWS

Home | Current Version | Previous Version | Text Only | Print | Product List | Glossary Off
Versions: 1 2 3 4 5 6 7 8 9 10 11 12 13 14 15 16 17 18 19 20 21 22 23 24 25

000
FTUS43 KBIS 301100
TAFDIK
TAF
KDIK 301139Z 3012/0112 12013KT 1SM -SHRA BR OVC002
      TEMPO 3012/3014 4SM TSRA BKN004 OVC012CB
     FM301400 08012KT 4SM -SHRA VCTS OVC008CB
     FM010000 01010KT 5SM -SHRA BKN008 OVC012
     FM010500 25015G25KT P6SM BKN010 OVC020=

USA.gov is the U.S. government's official web portal to all federal, state and local government web resources and services.